Time;durP1;ratioP1;P1;durP2;ratioP2;P2;SDS_P1;SDS_P2;PMS_P1;PMS_P2;Temp;Humidity;BMP_temperature;BMP_pressure;BME280_temperature;BME280_humidity;BME280_pressure;Samples;Min_cycle;Max_cycle;Signal;HPM_P1;HPM_P2
2021/09/17 08:52:17;;;;;;;16.90;7.65;;;;;;;;;;2073563;28;99950;-18
2021/09/17 08:53:19;;;;;;;13.90;6.68;;;;;;;;;;2072944;28;100210;-14
2021/09/17 08:54:21;;;;;;;16.50;6.82;;;;;;;;;;2072789;28;99795;-15
2021/09/17 08:55:22;;;;;;;13.43;7.20;;;;;;;;;;2072869;28;99808;-14
2021/09/17 08:56:23;;;;;;;13.50;6.82;;;;;;;;;;2072301;28;99874;-17
2021/09/17 08:57:24;;;;;;;15.48;7.18;;;;;;;;;;2072882;28;99945;-15
2021/09/17 08:58:25;;;;;;;;;;;;;;;;;;2073419;28;99789;-17
2021/09/17 08:59:26;;;;;;;13.98;6.65;;;;;;;;;;2073198;28;100075;-15
2021/09/17 09:00:29;;;;;;;14.32;6.88;;;;;;;;;;2072272;28;99867;-15
2021/09/17 09:01:36;;;;;;;14.82;6.63;;;;;;;;;;2072076;28;99958;-17
2021/09/17 09:02:45;;;;;;;13.15;6.90;;;;;;;;;;2071879;28;100677;-17
2021/09/17 09:03:48;;;;;;;17.17;7.53;;;;;;;;;;2071861;28;100006;-13
2021/09/17 09:05:05;;;;;;;14.35;7.38;;;;;;;;;;2072718;28;99905;-17
2021/09/17 09:06:14;;;;;;;13.18;6.60;;;;;;;;;;2073027;28;99790;-16
2021/09/17 09:07:15;;;;;;;15.93;6.55;;;;;;;;;;2072694;28;99929;-15
2021/09/17 09:08:21;;;;;;;12.25;7.18;;;;;;;;;;2069701;28;99790;-17
2021/09/17 09:09:22;;;;;;;17.00;6.95;;;;;;;;;;2063348;28;100151;-14
2021/09/17 09:10:24;;;;;;;18.05;6.38;;;;;;;;;;2067481;28;100822;-14
2021/09/17 09:11:26;;;;;;;12.88;6.38;;;;;;;;;;2071571;28;100209;-16
2021/09/17 09:12:27;;;;;;;19.00;6.65;;;;;;;;;;2068057;28;99934;-15
2021/09/17 09:13:28;;;;;;;12.38;6.45;;;;;;;;;;2063415;28;100104;-17
2021/09/17 09:14:29;;;;;;;16.08;6.57;;;;;;;;;;2062274;28;100212;-16
2021/09/17 09:15:33;;;;;;;17.02;7.55;;;;;;;;;;2063856;28;100057;-14
2021/09/17 09:16:38;;;;;;;19.30;6.68;;;;;;;;;;2047346;28;99892;-14
2021/09/17 09:17:40;;;;;;;21.30;6.55;;;;;;;;;;2043255;28;100038;-16
2021/09/17 09:18:54;;;;;;;15.25;5.88;;;;;;;;;;2070678;28;100084;-15
2021/09/17 09:19:55;;;;;;;15.27;5.85;;;;;;;;;;2071935;28;99815;-15
2021/09/17 09:20:57;;;;;;;16.88;7.97;;;;;;;;;;2065985;28;99855;-17
2021/09/17 09:22:07;;;;;;;16.55;7.10;;;;;;;;;;2063886;28;99959;-14
2021/09/17 09:23:10;;;;;;;13.67;6.10;;;;;;;;;;2063168;28;101658;-17
2021/09/17 09:24:17;;;;;;;13.95;5.68;;;;;;;;;;2063891;28;100301;-13
2021/09/17 09:25:18;;;;;;;9.30;5.93;;;;;;;;;;2063278;28;100037;-15
2021/09/17 09:26:22;;;;;;;16.05;6.80;;;;;;;;;;2063785;28;99961;-17
2021/09/17 09:27:24;;;;;;;12.55;6.03;;;;;;;;;;2064000;28;99900;-17
2021/09/17 09:28:28;;;;;;;17.30;6.13;;;;;;;;;;2064056;28;100067;-15
2021/09/17 09:29:30;;;;;;;18.38;6.78;;;;;;;;;;2063687;28;101151;-15
2021/09/17 09:30:31;;;;;;;10.68;6.30;;;;;;;;;;2064374;28;100148;-16
2021/09/17 09:31:42;;;;;;;11.85;6.05;;;;;;;;;;2066473;28;99986;-16
2021/09/17 09:32:43;;;;;;;17.35;6.55;;;;;;;;;;2063455;28;99970;-14
2021/09/17 09:33:48;;;;;;;15.50;6.47;;;;;;;;;;2062956;28;100134;-16
2021/09/17 09:34:54;;;;;;;13.68;6.10;;;;;;;;;;2072024;28;99869;-16
2021/09/17 09:36:05;;;;;;;14.25;6.13;;;;;;;;;;2066676;28;100110;-17
2021/09/17 09:37:06;;;;;;;15.23;6.27;;;;;;;;;;2072671;28;100011;-18
2021/09/17 09:38:08;;;;;;;16.27;5.75;;;;;;;;;;2063664;28;99910;-16
2021/09/17 09:39:09;;;;;;;14.57;6.70;;;;;;;;;;2063771;28;100248;-15
2021/09/17 09:40:14;;;;;;;13.02;6.45;;;;;;;;;;2071031;28;100076;-16
2021/09/17 09:41:29;;;;;;;11.35;5.93;;;;;;;;;;2062755;28;99986;-17
2021/09/17 09:42:43;;;;;;;12.55;6.38;;;;;;;;;;2063243;28;100067;-14
2021/09/17 09:44:00;;;;;;;17.83;6.55;;;;;;;;;;2065524;28;99973;-18
2021/09/17 09:45:11;;;;;;;19.45;6.78;;;;;;;;;;2071779;28;99934;-16
2021/09/17 09:46:42;;;;;;;14.63;6.10;;;;;;;;;;2063446;28;99941;-15
2021/09/17 09:47:47;;;;;;;17.17;6.47;;;;;;;;;;2064147;28;100883;-15
2021/09/17 09:49:03;;;;;;;20.15;6.75;;;;;;;;;;2063404;28;100020;-16
2021/09/17 09:50:09;;;;;;;15.95;6.78;;;;;;;;;;2063849;28;100112;-17
2021/09/17 09:51:11;;;;;;;13.63;6.35;;;;;;;;;;2064092;28;100161;-16
2021/09/17 09:52:12;;;;;;;18.17;6.53;;;;;;;;;;2063370;28;99941;-14
2021/09/17 09:53:15;;;;;;;15.70;7.78;;;;;;;;;;2057766;28;100245;-17
2021/09/17 09:54:16;;;;;;;16.20;7.28;;;;;;;;;;2057527;28;99969;-17
2021/09/17 09:55:18;;;;;;;16.27;7.82;;;;;;;;;;2057824;28;99978;-14
2021/09/17 09:56:19;;;;;;;17.48;8.35;;;;;;;;;;2058230;28;99944;-16
2021/09/17 09:57:21;;;;;;;18.38;7.32;;;;;;;;;;2056738;28;100040;-19
2021/09/17 09:58:22;;;;;;;17.13;8.10;;;;;;;;;;2057154;28;99980;-15
2021/09/17 09:59:29;;;;;;;20.90;7.82;;;;;;;;;;2049656;28;100486;-17
2021/09/17 10:00:32;;;;;;;14.82;8.00;;;;;;;;;;2049450;28;100013;-17
2021/09/17 10:01:36;;;;;;;14.35;8.13;;;;;;;;;;2028620;28;101880;-16
2021/09/17 10:02:38;;;;;;;17.88;8.43;;;;;;;;;;2035234;28;100047;-15
2021/09/17 10:03:40;;;;;;;13.88;7.55;;;;;;;;;;2043996;28;100004;-19
2021/09/17 10:04:42;;;;;;;18.02;7.43;;;;;;;;;;2024724;28;100079;-16
2021/09/17 10:05:44;;;;;;;16.25;6.57;;;;;;;;;;2033858;28;99944;-15
2021/09/17 10:06:45;;;;;;;15.05;7.25;;;;;;;;;;2065922;28;99943;-18
2021/09/17 10:07:47;;;;;;;16.90;7.05;;;;;;;;;;2057629;28;100748;-15
2021/09/17 10:08:48;;;;;;;18.50;8.18;;;;;;;;;;2049943;28;99841;-14
2021/09/17 10:09:50;;;;;;;12.93;6.57;;;;;;;;;;2057263;28;100077;-15
2021/09/17 10:10:52;;;;;;;14.77;6.63;;;;;;;;;;2042049;28;100374;-17
2021/09/17 10:11:53;;;;;;;12.63;6.45;;;;;;;;;;2049958;28;100024;-16
2021/09/17 10:12:54;;;;;;;12.77;7.00;;;;;;;;;;2065947;28;100100;-17
2021/09/17 10:13:58;;;;;;;18.33;7.22;;;;;;;;;;2065120;28;100062;-16
2021/09/17 10:15:01;;;;;;;16.02;7.10;;;;;;;;;;2065732;28;100158;-17
2021/09/17 10:16:02;;;;;;;12.85;7.03;;;;;;;;;;2066166;28;100040;-16
2021/09/17 10:17:10;;;;;;;17.20;6.88;;;;;;;;;;2065573;28;100482;-15
2021/09/17 10:18:11;;;;;;;10.45;6.28;;;;;;;;;;2059802;28;100203;-18
2021/09/17 10:19:13;;;;;;;15.18;6.50;;;;;;;;;;2058174;28;99971;-17
2021/09/17 10:20:14;;;;;;;14.55;7.38;;;;;;;;;;2057227;28;100967;-18
2021/09/17 10:21:46;;;;;;;14.43;6.80;;;;;;;;;;2057702;28;100420;-17
2021/09/17 10:22:48;;;;;;;16.25;6.50;;;;;;;;;;2058278;28;100001;-15
2021/09/17 10:23:49;;;;;;;10.73;6.57;;;;;;;;;;2058023;28;100029;-18
2021/09/17 10:25:22;;;;;;;13.75;6.35;;;;;;;;;;2050026;28;100019;-13
2021/09/17 10:26:23;;;;;;;10.52;6.68;;;;;;;;;;2053852;28;99997;-17
2021/09/17 10:27:24;;;;;;;;;;;;;;;;;;2059174;28;99894;-15
2021/09/17 10:28:25;;;;;;;9.90;5.68;;;;;;;;;;2057509;28;99945;-18
2021/09/17 10:29:32;;;;;;;11.90;6.53;;;;;;;;;;2057643;28;99886;-17
2021/09/17 10:30:36;;;;;;;13.05;6.13;;;;;;;;;;2058256;28;99924;-17
2021/09/17 10:31:45;;;;;;;11.95;6.13;;;;;;;;;;2058547;28;100018;-15
2021/09/17 10:32:50;;;;;;;13.15;6.00;;;;;;;;;;2057326;28;100024;-17
2021/09/17 10:33:51;;;;;;;12.93;6.72;;;;;;;;;;2057493;28;100127;-15
2021/09/17 10:35:23;;;;;;;15.20;6.63;;;;;;;;;;2061360;28;99901;-14
2021/09/17 10:36:43;;;;;;;12.68;6.47;;;;;;;;;;2060501;28;101287;-26
2021/09/17 10:38:02;;;;;;;9.40;6.03;;;;;;;;;;2062468;28;99994;-18
2021/09/17 10:39:14;;;;;;;12.68;6.90;;;;;;;;;;2061865;28;100437;-15
2021/09/17 10:40:15;;;;;;;10.57;6.03;;;;;;;;;;2061287;28;100114;-13
2021/09/17 10:41:16;;;;;;;11.23;6.45;;;;;;;;;;2061321;28;100044;-16
2021/09/17 10:42:18;;;;;;;13.07;6.85;;;;;;;;;;2061188;28;100042;-17
2021/09/17 10:43:22;;;;;;;10.18;6.40;;;;;;;;;;2061401;28;100059;-17
2021/09/17 10:44:24;;;;;;;12.27;6.55;;;;;;;;;;2061563;28;100501;-13
2021/09/17 10:45:38;;;;;;;13.73;6.47;;;;;;;;;;2039803;28;100340;-17
2021/09/17 10:46:39;;;;;;;11.77;6.53;;;;;;;;;;2045491;28;100374;-16
2021/09/17 10:47:40;;;;;;;10.23;6.18;;;;;;;;;;2063490;28;100157;-14
2021/09/17 10:48:41;;;;;;;14.38;6.47;;;;;;;;;;2061717;28;100328;-15
2021/09/17 10:50:01;;;;;;;11.57;6.57;;;;;;;;;;2062175;28;100110;-16
2021/09/17 10:51:04;;;;;;;8.67;5.57;;;;;;;;;;2061214;28;100025;-17
2021/09/17 10:52:38;;;;;;;12.77;6.32;;;;;;;;;;2061262;28;100085;-15
2021/09/17 10:53:39;;;;;;;15.05;6.40;;;;;;;;;;2060770;28;100633;-16
2021/09/17 10:54:40;;;;;;;12.02;6.90;;;;;;;;;;2062856;28;100316;-14
2021/09/17 10:55:44;;;;;;;11.82;6.63;;;;;;;;;;2061837;28;100044;-16
2021/09/17 10:56:48;;;;;;;14.43;6.30;;;;;;;;;;2061007;28;100007;-14
2021/09/17 10:58:21;;;;;;;13.27;6.55;;;;;;;;;;2061202;28;100113;-15
2021/09/17 10:59:30;;;;;;;11.02;6.10;;;;;;;;;;2060039;28;100449;-17
2021/09/17 11:00:53;;;;;;;12.20;6.00;;;;;;;;;;2062320;28;100853;-14
2021/09/17 11:02:00;;;;;;;12.45;6.40;;;;;;;;;;2060064;28;100169;-15
2021/09/17 11:03:01;;;;;;;10.32;6.40;;;;;;;;;;2054072;28;100506;-15
2021/09/17 11:04:03;;;;;;;13.48;7.00;;;;;;;;;;2054624;28;100634;-17
2021/09/17 11:05:17;;;;;;;11.27;6.35;;;;;;;;;;2052378;28;100104;-17
2021/09/17 11:06:18;;;;;;;13.20;6.30;;;;;;;;;;2061289;28;100110;-16
2021/09/17 11:07:25;;;;;;;16.33;6.60;;;;;;;;;;2062175;28;100084;-16
2021/09/17 11:08:47;;;;;;;12.35;6.53;;;;;;;;;;2048387;28;100179;-16
2021/09/17 11:09:54;;;;;;;11.48;6.57;;;;;;;;;;2045725;28;100423;-18
2021/09/17 11:11:26;;;;;;;13.40;6.50;;;;;;;;;;2051492;28;99983;-17
2021/09/17 11:12:30;;;;;;;13.68;6.18;;;;;;;;;;2062006;28;100111;-15
2021/09/17 11:13:32;;;;;;;8.10;6.05;;;;;;;;;;2062654;28;100287;-18
2021/09/17 11:14:33;;;;;;;11.55;6.22;;;;;;;;;;2062985;28;100075;-17
2021/09/17 11:15:33;;;;;;;;;;;;;;;;;;2062775;28;100066;-18
2021/09/17 11:16:35;;;;;;;11.20;6.20;;;;;;;;;;2062359;28;100255;-14
2021/09/17 11:17:56;;;;;;;12.20;6.22;;;;;;;;;;2060372;28;99937;-17
2021/09/17 11:19:06;;;;;;;13.82;6.68;;;;;;;;;;2062068;28;99965;-16
2021/09/17 11:20:13;;;;;;;15.00;6.10;;;;;;;;;;2062673;28;100145;-16
2021/09/17 11:21:17;;;;;;;16.33;6.47;;;;;;;;;;2054934;28;101614;-17
2021/09/17 11:22:22;;;;;;;10.70;5.93;;;;;;;;;;2063250;28;99942;-18
2021/09/17 11:23:36;;;;;;;12.60;6.72;;;;;;;;;;2055541;28;99963;-18
2021/09/17 11:24:39;;;;;;;16.00;6.32;;;;;;;;;;2040979;28;99965;-15
2021/09/17 11:25:43;;;;;;;10.13;6.22;;;;;;;;;;2054072;28;100092;-16
2021/09/17 11:26:46;;;;;;;11.45;6.40;;;;;;;;;;2061439;28;100764;-17
2021/09/17 11:27:47;;;;;;;8.52;5.47;;;;;;;;;;2060160;28;100911;-16
2021/09/17 11:29:08;;;;;;;11.23;6.13;;;;;;;;;;2060916;28;100095;-15
2021/09/17 11:30:10;;;;;;;12.13;6.05;;;;;;;;;;2063983;28;100477;-16
2021/09/17 11:31:16;;;;;;;10.25;6.75;;;;;;;;;;2061503;28;100726;-14
2021/09/17 11:32:26;;;;;;;10.98;5.95;;;;;;;;;;2060789;28;100054;-16
2021/09/17 11:33:27;;;;;;;9.50;5.68;;;;;;;;;;2060357;28;100095;-16
2021/09/17 11:34:30;;;;;;;13.45;6.47;;;;;;;;;;2061397;28;100278;-16
2021/09/17 11:35:31;;;;;;;15.73;6.90;;;;;;;;;;2061842;28;100164;-17
2021/09/17 11:36:39;;;;;;;20.15;7.38;;;;;;;;;;2062444;28;100138;-15
2021/09/17 11:37:48;;;;;;;19.52;8.38;;;;;;;;;;2061349;28;100061;-15
2021/09/17 11:38:49;;;;;;;19.17;8.48;;;;;;;;;;2060684;28;100217;-16
2021/09/17 11:39:51;;;;;;;20.73;9.27;;;;;;;;;;2062351;28;100479;-18
2021/09/17 11:40:56;;;;;;;18.95;8.35;;;;;;;;;;2062671;28;100050;-15
2021/09/17 11:42:00;;;;;;;15.07;8.00;;;;;;;;;;2061526;28;100097;-18
2021/09/17 11:43:15;;;;;;;17.73;8.93;;;;;;;;;;2063905;28;100048;-15
2021/09/17 11:44:39;;;;;;;31.25;11.00;;;;;;;;;;2061992;28;100021;-18
2021/09/17 11:45:45;;;;;;;25.95;9.90;;;;;;;;;;2062267;28;100088;-18
2021/09/17 11:46:46;;;;;;;22.25;9.45;;;;;;;;;;2061183;28;100063;-15
2021/09/17 11:47:51;;;;;;;21.60;9.32;;;;;;;;;;2062373;28;100022;-16
2021/09/17 11:48:52;;;;;;;20.40;9.95;;;;;;;;;;2056666;28;100124;-17
2021/09/17 11:50:14;;;;;;;25.65;11.60;;;;;;;;;;2059651;28;100368;-18
2021/09/17 11:51:21;;;;;;;106.28;49.78;;;;;;;;;;2062934;28;100047;-17
2021/09/17 11:52:22;;;;;;;124.28;59.67;;;;;;;;;;2062694;28;99957;-15
2021/09/17 11:53:26;;;;;;;110.07;57.03;;;;;;;;;;2063756;28;99924;-17
2021/09/17 11:54:27;;;;;;;132.23;68.03;;;;;;;;;;2060386;28;100065;-15
2021/09/17 11:55:28;;;;;;;191.68;102.47;;;;;;;;;;2059922;28;100128;-16
2021/09/17 11:56:29;;;;;;;233.77;125.82;;;;;;;;;;2061754;28;100240;-17
2021/09/17 11:57:32;;;;;;;204.38;111.40;;;;;;;;;;2062000;28;100044;-17
2021/09/17 11:58:41;;;;;;;230.10;128.23;;;;;;;;;;2062062;28;100037;-18
2021/09/17 11:59:44;;;;;;;236.07;123.78;;;;;;;;;;2064845;28;100090;-16
2021/09/17 12:00:46;;;;;;;216.70;113.85;;;;;;;;;;2056247;28;101953;-16
2021/09/17 12:01:47;;;;;;;242.10;129.82;;;;;;;;;;2052754;28;100084;-17
2021/09/17 12:02:56;;;;;;;197.07;110.35;;;;;;;;;;2062194;28;99959;-17
2021/09/17 12:03:57;;;;;;;183.90;99.72;;;;;;;;;;2059820;28;100023;-18
2021/09/17 12:05:05;;;;;;;168.02;92.97;;;;;;;;;;2062676;28;99931;-15
2021/09/17 12:06:06;;;;;;;171.70;92.90;;;;;;;;;;2059858;28;100041;-16
2021/09/17 12:07:08;;;;;;;146.60;77.20;;;;;;;;;;2061439;28;99988;-17
2021/09/17 12:08:10;;;;;;;138.95;73.40;;;;;;;;;;2060581;28;100080;-15
2021/09/17 12:09:11;;;;;;;142.07;75.55;;;;;;;;;;2062681;28;99996;-18
2021/09/17 12:10:14;;;;;;;133.45;70.85;;;;;;;;;;2060216;28;100114;-15
2021/09/17 12:11:22;;;;;;;119.88;60.35;;;;;;;;;;2062778;28;99858;-17
2021/09/17 12:12:34;;;;;;;108.60;54.17;;;;;;;;;;2062114;28;100200;-16
2021/09/17 12:13:35;;;;;;;103.40;50.65;;;;;;;;;;2061951;28;102369;-18
2021/09/17 12:14:39;;;;;;;98.43;49.45;;;;;;;;;;2058609;28;99995;-15
2021/09/17 12:15:45;;;;;;;90.05;43.42;;;;;;;;;;2057148;28;100002;-15
2021/09/17 12:16:46;;;;;;;73.43;37.22;;;;;;;;;;2056916;28;99950;-14
2021/09/17 12:18:16;;;;;;;72.85;36.20;;;;;;;;;;2057139;28;99959;-16
2021/09/17 12:19:17;;;;;;;69.68;33.42;;;;;;;;;;2053063;28;100352;-16
2021/09/17 12:20:18;;;;;;;61.90;30.23;;;;;;;;;;2056515;28;99957;-17
2021/09/17 12:21:20;;;;;;;55.38;29.08;;;;;;;;;;2056954;28;100127;-15
2021/09/17 12:22:38;;;;;;;45.08;23.35;;;;;;;;;;2057047;28;99975;-17
2021/09/17 12:23:40;;;;;;;45.97;21.92;;;;;;;;;;2057114;28;99827;-17
2021/09/17 12:24:44;;;;;;;46.80;22.70;;;;;;;;;;2056835;28;100030;-15
2021/09/17 12:25:47;;;;;;;41.97;19.52;;;;;;;;;;2054050;28;100346;-15
2021/09/17 12:26:58;;;;;;;36.17;18.25;;;;;;;;;;2056680;28;100192;-17
2021/09/17 12:28:13;;;;;;;41.35;19.73;;;;;;;;;;2065303;28;99993;-15
2021/09/17 12:29:14;;;;;;;36.55;19.33;;;;;;;;;;2064575;28;100023;-17
2021/09/17 12:30:21;;;;;;;30.48;16.02;;;;;;;;;;2062864;28;100131;-17
2021/09/17 12:31:37;;;;;;;37.03;17.02;;;;;;;;;;2055638;28;100184;-15
2021/09/17 12:32:39;;;;;;;35.05;16.33;;;;;;;;;;2047483;28;99912;-19
2021/09/17 12:33:41;;;;;;;26.55;14.88;;;;;;;;;;2032501;28;99992;-18
2021/09/17 12:35:01;;;;;;;28.08;14.90;;;;;;;;;;2040221;28;100429;-16
2021/09/17 12:36:13;;;;;;;31.63;13.70;;;;;;;;;;2059451;28;100269;-15
2021/09/17 12:37:15;;;;;;;25.15;12.95;;;;;;;;;;2064797;28;99933;-23
2021/09/17 12:38:19;;;;;;;26.70;14.25;;;;;;;;;;2056636;28;99861;-17
2021/09/17 12:39:26;;;;;;;27.88;13.00;;;;;;;;;;2049010;28;100119;-18
2021/09/17 12:40:29;;;;;;;30.20;13.23;;;;;;;;;;2049041;28;100177;-17
2021/09/17 12:41:31;;;;;;;25.85;12.52;;;;;;;;;;2048433;28;100159;-16
2021/09/17 12:42:33;;;;;;;24.25;13.05;;;;;;;;;;2047926;28;100363;-20
2021/09/17 12:43:40;;;;;;;22.20;11.45;;;;;;;;;;2056099;28;99978;-22
2021/09/17 12:44:43;;;;;;;20.92;11.45;;;;;;;;;;2048614;28;100056;-19
2021/09/17 12:45:59;;;;;;;22.05;11.35;;;;;;;;;;2048090;28;99899;-16
2021/09/17 12:47:01;;;;;;;24.80;11.00;;;;;;;;;;2052844;28;100042;-17
2021/09/17 12:48:04;;;;;;;21.75;10.93;;;;;;;;;;2063643;28;100069;-19
2021/09/17 12:49:07;;;;;;;22.55;10.77;;;;;;;;;;2056461;28;99885;-17
2021/09/17 12:50:13;;;;;;;18.73;10.45;;;;;;;;;;2048069;28;100060;-16
2021/09/17 12:51:24;;;;;;;18.17;10.23;;;;;;;;;;2057039;28;100048;-17
2021/09/17 12:52:26;;;;;;;22.67;10.55;;;;;;;;;;2064394;28;99874;-14
2021/09/17 12:53:36;;;;;;;19.92;10.30;;;;;;;;;;2064468;28;100044;-18
2021/09/17 12:54:39;;;;;;;19.75;10.07;;;;;;;;;;2071510;28;100015;-16
2021/09/17 12:55:43;;;;;;;19.27;10.02;;;;;;;;;;2065064;28;100029;-16
2021/09/17 12:56:45;;;;;;;22.00;10.00;;;;;;;;;;2064506;28;99897;-15
2021/09/17 12:58:05;;;;;;;17.95;9.70;;;;;;;;;;2048060;28;99863;-15
2021/09/17 12:59:14;;;;;;;21.00;10.45;;;;;;;;;;2052956;28;99920;-17
2021/09/17 13:00:16;;;;;;;21.17;9.95;;;;;;;;;;2063326;28;100195;-17
2021/09/17 13:01:17;;;;;;;18.17;9.93;;;;;;;;;;2064555;28;99847;-15
2021/09/17 13:02:18;;;;;;;19.08;10.45;;;;;;;;;;2055811;28;100328;-16
2021/09/17 13:03:20;;;;;;;19.92;10.57;;;;;;;;;;2048569;28;100116;-16
2021/09/17 13:04:26;;;;;;;19.35;10.50;;;;;;;;;;2055766;28;99959;-15
2021/09/17 13:05:29;;;;;;;17.40;9.88;;;;;;;;;;2064822;28;99885;-19
2021/09/17 13:06:32;;;;;;;17.23;9.38;;;;;;;;;;2056173;28;100212;-17
2021/09/17 13:07:34;;;;;;;16.67;10.10;;;;;;;;;;2048255;28;100092;-14
2021/09/17 13:08:39;;;;;;;16.58;10.02;;;;;;;;;;2056266;28;100167;-15
2021/09/17 13:09:40;;;;;;;19.77;9.60;;;;;;;;;;2055712;28;100033;-17
2021/09/17 13:10:42;;;;;;;15.82;9.43;;;;;;;;;;2055839;28;100117;-18
2021/09/17 13:11:43;;;;;;;16.17;9.52;;;;;;;;;;2055943;28;100064;-16
2021/09/17 13:12:47;;;;;;;15.68;9.48;;;;;;;;;;2048423;28;99987;-16
2021/09/17 13:13:49;;;;;;;18.73;9.43;;;;;;;;;;2040184;28;100026;-16
2021/09/17 13:14:51;;;;;;;19.23;9.32;;;;;;;;;;2212869;23;102077;-15
2021/09/17 13:15:53;;;;;;;18.90;9.60;;;;;;;;;;2047759;28;100152;-15
2021/09/17 13:16:55;;;;;;;19.33;9.43;;;;;;;;;;2046888;28;100374;-13
2021/09/17 13:17:56;;;;;;;17.48;8.52;;;;;;;;;;2039793;28;100534;-14
2021/09/17 13:18:57;;;;;;;16.52;9.20;;;;;;;;;;2034176;28;100485;-13
2021/09/17 13:19:59;;;;;;;17.85;9.02;;;;;;;;;;2199045;23;102153;-14
2021/09/17 13:21:00;;;;;;;13.93;9.02;;;;;;;;;;2040034;28;100183;-14
2021/09/17 13:22:02;;;;;;;16.25;8.20;;;;;;;;;;2041544;28;99854;-14
2021/09/17 13:23:03;;;;;;;14.27;8.13;;;;;;;;;;2039475;28;99900;-15
2021/09/17 13:24:05;;;;;;;17.80;8.98;;;;;;;;;;2042686;28;100042;-14
2021/09/17 13:25:08;;;;;;;13.90;8.90;;;;;;;;;;2040633;28;99959;-13
2021/09/17 13:26:09;;;;;;;17.05;8.60;;;;;;;;;;2046015;28;100135;-13
2021/09/17 13:27:10;;;;;;;16.73;8.85;;;;;;;;;;2048392;28;100034;-13
2021/09/17 13:28:12;;;;;;;13.30;8.32;;;;;;;;;;2048932;28;99839;-13
2021/09/17 13:29:13;;;;;;;15.38;7.85;;;;;;;;;;2050023;28;100209;-14
2021/09/17 13:30:15;;;;;;;16.27;8.45;;;;;;;;;;2048661;28;100011;-13
2021/09/17 13:31:17;;;;;;;14.73;8.05;;;;;;;;;;2047984;28;100723;-13
2021/09/17 13:32:18;;;;;;;16.48;8.13;;;;;;;;;;2041484;28;100327;-14
2021/09/17 13:33:19;;;;;;;15.50;8.30;;;;;;;;;;2042329;28;99990;-15
2021/09/17 13:34:21;;;;;;;13.85;7.55;;;;;;;;;;2041759;28;99861;-14
2021/09/17 13:35:26;;;;;;;18.52;8.48;;;;;;;;;;2041158;28;99926;-14
2021/09/17 13:36:28;;;;;;;14.70;7.60;;;;;;;;;;2040904;28;100499;-14
2021/09/17 13:37:29;;;;;;;16.35;8.65;;;;;;;;;;2025362;28;100017;-14
2021/09/17 13:38:30;;;;;;;15.57;8.13;;;;;;;;;;2025938;28;100369;-15
2021/09/17 13:39:31;;;;;;;16.23;8.75;;;;;;;;;;2048034;28;100373;-14
2021/09/17 13:40:33;;;;;;;19.10;8.80;;;;;;;;;;2034595;28;100182;-14
2021/09/17 13:41:34;;;;;;;15.07;8.70;;;;;;;;;;2047581;28;100179;-14
2021/09/17 13:42:36;;;;;;;17.00;9.45;;;;;;;;;;2049341;28;100062;-14
2021/09/17 13:43:38;;;;;;;15.18;9.02;;;;;;;;;;2042500;28;100437;-14
2021/09/17 13:44:40;;;;;;;15.55;8.38;;;;;;;;;;2035317;28;100100;-14
2021/09/17 13:45:41;;;;;;;17.67;8.90;;;;;;;;;;2034230;28;100021;-14
2021/09/17 13:46:42;;;;;;;12.30;7.47;;;;;;;;;;2046514;28;99891;-15
2021/09/17 13:47:44;;;;;;;13.23;8.45;;;;;;;;;;2044380;28;99982;-15
2021/09/17 13:48:45;;;;;;;15.18;8.38;;;;;;;;;;2047254;28;99812;-14
2021/09/17 13:49:47;;;;;;;15.10;8.93;;;;;;;;;;2043716;28;100185;-14
2021/09/17 13:50:48;;;;;;;14.38;8.48;;;;;;;;;;2041095;28;99953;-16
2021/09/17 13:51:49;;;;;;;16.20;9.23;;;;;;;;;;2044106;28;100425;-14
2021/09/17 13:52:56;;;;;;;15.80;9.43;;;;;;;;;;2049461;28;100233;-14
2021/09/17 13:53:57;;;;;;;16.45;8.68;;;;;;;;;;2049744;28;99950;-14
2021/09/17 13:54:58;;;;;;;16.33;9.50;;;;;;;;;;2057484;28;100066;-14
2021/09/17 13:55:59;;;;;;;19.63;10.40;;;;;;;;;;2057500;28;100099;-14
2021/09/17 13:57:00;;;;;;;19.48;10.60;;;;;;;;;;2057207;28;100030;-14
2021/09/17 13:58:02;;;;;;;16.00;10.00;;;;;;;;;;2057225;28;99901;-14
2021/09/17 13:59:04;;;;;;;20.48;10.25;;;;;;;;;;2049800;28;99934;-14
2021/09/17 14:00:06;;;;;;;17.65;9.85;;;;;;;;;;2049349;28;99909;-14
2021/09/17 14:01:09;;;;;;;20.50;10.43;;;;;;;;;;2040790;28;100026;-14
2021/09/17 14:02:10;;;;;;;19.10;10.70;;;;;;;;;;2033030;28;100115;-14
2021/09/17 14:03:12;;;;;;;19.38;10.45;;;;;;;;;;2040950;28;100126;-13
2021/09/17 14:04:14;;;;;;;15.93;8.65;;;;;;;;;;2041368;28;100041;-13
2021/09/17 14:05:15;;;;;;;17.95;9.68;;;;;;;;;;2038801;28;100041;-14
2021/09/17 14:06:16;;;;;;;14.68;8.80;;;;;;;;;;2049508;28;100349;-14
2021/09/17 14:07:18;;;;;;;16.27;8.32;;;;;;;;;;2049399;28;100043;-14
2021/09/17 14:08:19;;;;;;;13.65;8.10;;;;;;;;;;2047386;28;99997;-14
2021/09/17 14:09:20;;;;;;;18.10;7.75;;;;;;;;;;2040972;28;100062;-14
2021/09/17 14:10:23;;;;;;;14.00;6.90;;;;;;;;;;2044061;28;99956;-14
2021/09/17 14:11:25;;;;;;;11.30;6.20;;;;;;;;;;2032650;28;100121;-14
2021/09/17 14:12:26;;;;;;;19.10;7.25;;;;;;;;;;2023260;28;100053;-14
2021/09/17 14:13:27;;;;;;;15.43;6.15;;;;;;;;;;2040925;28;99947;-14
2021/09/17 14:14:33;;;;;;;10.88;6.45;;;;;;;;;;2045992;28;100049;-13
2021/09/17 14:15:35;;;;;;;13.25;6.38;;;;;;;;;;2041883;28;100215;-13
2021/09/17 14:16:36;;;;;;;;;;;;;;;;;;2050043;28;100256;-13
2021/09/17 14:17:37;;;;;;;12.57;6.05;;;;;;;;;;2041730;28;100094;-13
2021/09/17 14:18:39;;;;;;;14.57;6.10;;;;;;;;;;2042359;28;100195;-14
2021/09/17 14:19:40;;;;;;;9.50;5.88;;;;;;;;;;2041538;28;100053;-14
2021/09/17 14:20:43;;;;;;;11.18;5.93;;;;;;;;;;2040797;28;99926;-14
2021/09/17 14:21:45;;;;;;;10.32;5.55;;;;;;;;;;2034631;28;100491;-13
2021/09/17 14:22:47;;;;;;;10.65;5.40;;;;;;;;;;2048878;28;100077;-14
2021/09/17 14:23:49;;;;;;;9.07;5.40;;;;;;;;;;2043952;28;100368;-14
2021/09/17 14:24:50;;;;;;;11.80;5.93;;;;;;;;;;2048052;28;100065;-13
2021/09/17 14:25:51;;;;;;;16.75;6.07;;;;;;;;;;2047789;28;101099;-14
2021/09/17 14:26:52;;;;;;;;;;;;;;;;;;2050153;28;101568;-13
2021/09/17 14:27:53;;;;;;;9.93;5.25;;;;;;;;;;2057138;28;100156;-14
2021/09/17 14:28:54;;;;;;;9.32;5.47;;;;;;;;;;2057095;28;100023;-18
2021/09/17 14:29:55;;;;;;;16.15;6.13;;;;;;;;;;2048892;28;100182;-13
2021/09/17 14:30:56;;;;;;;11.25;5.22;;;;;;;;;;2049063;28;100768;-14
2021/09/17 14:31:58;;;;;;;14.02;5.28;;;;;;;;;;2048893;28;100082;-14
2021/09/17 14:33:01;;;;;;;12.23;5.40;;;;;;;;;;2049165;28;100084;-14
2021/09/17 14:34:03;;;;;;;10.18;5.32;;;;;;;;;;2048299;28;99906;-14
2021/09/17 14:35:04;;;;;;;11.18;5.35;;;;;;;;;;2048701;28;99899;-13
2021/09/17 14:36:05;;;;;;;10.68;5.65;;;;;;;;;;2048425;28;100029;-14
2021/09/17 14:37:06;;;;;;;13.20;5.75;;;;;;;;;;2049415;28;100070;-14
2021/09/17 14:38:07;;;;;;;12.18;5.55;;;;;;;;;;2049703;28;100005;-13
2021/09/17 14:39:09;;;;;;;10.90;5.55;;;;;;;;;;2049553;28;99961;-14
2021/09/17 14:40:10;;;;;;;13.27;5.45;;;;;;;;;;2049384;28;100017;-13
2021/09/17 14:41:12;;;;;;;10.75;5.20;;;;;;;;;;2049885;28;99938;-14
2021/09/17 14:42:13;;;;;;;12.75;5.50;;;;;;;;;;2049475;28;99922;-14
2021/09/17 14:43:14;;;;;;;9.98;5.05;;;;;;;;;;2049290;28;100113;-14
2021/09/17 14:44:16;;;;;;;13.65;5.18;;;;;;;;;;2049076;28;99951;-14
2021/09/17 14:45:17;;;;;;;8.20;5.72;;;;;;;;;;2042751;28;100017;-13
2021/09/17 14:46:18;;;;;;;9.43;5.00;;;;;;;;;;2047709;28;100779;-14
2021/09/17 14:47:19;;;;;;;10.70;5.53;;;;;;;;;;2041781;28;100178;-14
2021/09/17 14:48:20;;;;;;;10.93;5.07;;;;;;;;;;2043991;28;100072;-14
2021/09/17 14:49:21;;;;;;;8.98;4.95;;;;;;;;;;2048895;28;100092;-13
2021/09/17 14:50:22;;;;;;;13.00;5.72;;;;;;;;;;2048995;28;99881;-13
2021/09/17 14:51:24;;;;;;;10.05;5.30;;;;;;;;;;2049700;28;99840;-14
2021/09/17 14:52:25;;;;;;;13.30;5.28;;;;;;;;;;2049158;28;100240;-13
2021/09/17 14:53:26;;;;;;;12.25;5.60;;;;;;;;;;2049586;28;99896;-14
2021/09/17 14:54:27;;;;;;;12.00;4.70;;;;;;;;;;2049258;28;99985;-14
2021/09/17 14:55:29;;;;;;;12.05;5.75;;;;;;;;;;2048890;28;100031;-13
2021/09/17 14:56:30;;;;;;;11.13;4.78;;;;;;;;;;2048644;28;100229;-14
2021/09/17 14:57:31;;;;;;;11.50;4.57;;;;;;;;;;2041715;28;99860;-13
2021/09/17 14:58:32;;;;;;;10.88;5.03;;;;;;;;;;2041388;28;99855;-14
2021/09/17 14:59:33;;;;;;;9.23;5.18;;;;;;;;;;2041631;28;99838;-14
2021/09/17 15:00:34;;;;;;;13.55;5.35;;;;;;;;;;2043857;28;100042;-14
2021/09/17 15:01:37;;;;;;;18.58;5.38;;;;;;;;;;2047029;28;99957;-14
2021/09/17 15:02:39;;;;;;;12.38;5.05;;;;;;;;;;2041619;28;99938;-14
2021/09/17 15:03:40;;;;;;;11.25;5.18;;;;;;;;;;2041862;28;100180;-13
2021/09/17 15:04:41;;;;;;;15.63;4.95;;;;;;;;;;2047758;28;100071;-14
2021/09/17 15:05:42;;;;;;;13.18;6.05;;;;;;;;;;2047586;28;99895;-14
2021/09/17 15:06:43;;;;;;;12.98;4.75;;;;;;;;;;2140401;23;100780;-13
2021/09/17 15:07:44;;;;;;;14.48;4.40;;;;;;;;;;2039316;28;100831;-13